sensor_id;sensor_type;location;lat;lon;timestamp;P1;durP1;ratioP1;P2;durP2;ratioP2
23310;SDS011;11828;51.508;18.118;2023-06-22T00:00:55;56.80;;;51.22;;
23310;SDS011;11828;51.508;18.118;2023-06-22T00:03:30;60.03;;;54.40;;
23310;SDS011;11828;51.508;18.118;2023-06-22T00:05:56;63.15;;;57.45;;
23310;SDS011;11828;51.508;18.118;2023-06-22T00:08:23;65.75;;;58.92;;
23310;SDS011;11828;51.508;18.118;2023-06-22T00:10:49;70.40;;;63.05;;
23310;SDS011;11828;51.508;18.118;2023-06-22T00:13:15;73.47;;;63.83;;
23310;SDS011;11828;51.508;18.118;2023-06-22T00:15:43;66.53;;;59.85;;
23310;SDS011;11828;51.508;18.118;2023-06-22T00:18:10;64.95;;;58.67;;
23310;SDS011;11828;51.508;18.118;2023-06-22T00:20:37;66.95;;;60.20;;
23310;SDS011;11828;51.508;18.118;2023-06-22T00:23:05;66.78;;;59.95;;
23310;SDS011;11828;51.508;18.118;2023-06-22T00:25:34;73.50;;;65.60;;
23310;SDS011;11828;51.508;18.118;2023-06-22T00:28:02;74.75;;;66.80;;
23310;SDS011;11828;51.508;18.118;2023-06-22T00:30:29;83.75;;;72.10;;
23310;SDS011;11828;51.508;18.118;2023-06-22T00:32:57;85.40;;;73.25;;
23310;SDS011;11828;51.508;18.118;2023-06-22T00:35:24;81.35;;;72.53;;
23310;SDS011;11828;51.508;18.118;2023-06-22T00:37:55;88.20;;;78.35;;
23310;SDS011;11828;51.508;18.118;2023-06-22T00:40:30;87.10;;;77.10;;
23310;SDS011;11828;51.508;18.118;2023-06-22T00:42:58;104.68;;;81.13;;
23310;SDS011;11828;51.508;18.118;2023-06-22T00:45:25;98.05;;;79.80;;
23310;SDS011;11828;51.508;18.118;2023-06-22T00:47:52;117.97;;;83.63;;
23310;SDS011;11828;51.508;18.118;2023-06-22T00:50:22;105.90;;;83.80;;
23310;SDS011;11828;51.508;18.118;2023-06-22T00:52:51;98.63;;;81.38;;
23310;SDS011;11828;51.508;18.118;2023-06-22T00:55:20;94.32;;;79.75;;
23310;SDS011;11828;51.508;18.118;2023-06-22T00:57:47;116.53;;;84.60;;
23310;SDS011;11828;51.508;18.118;2023-06-22T01:00:14;106.32;;;81.22;;
23310;SDS011;11828;51.508;18.118;2023-06-22T01:02:46;103.43;;;81.57;;
23310;SDS011;11828;51.508;18.118;2023-06-22T01:05:17;110.05;;;83.47;;
23310;SDS011;11828;51.508;18.118;2023-06-22T01:16:41;125.78;;;87.30;;
23310;SDS011;11828;51.508;18.118;2023-06-22T01:19:55;131.52;;;91.10;;
23310;SDS011;11828;51.508;18.118;2023-06-22T01:22:25;132.35;;;90.40;;
23310;SDS011;11828;51.508;18.118;2023-06-22T01:30:37;144.60;;;93.53;;
23310;SDS011;11828;51.508;18.118;2023-06-22T01:33:04;142.25;;;93.72;;
23310;SDS011;11828;51.508;18.118;2023-06-22T01:35:31;148.00;;;94.97;;
23310;SDS011;11828;51.508;18.118;2023-06-22T01:37:58;153.93;;;94.55;;
23310;SDS011;11828;51.508;18.118;2023-06-22T01:40:25;143.45;;;93.60;;
23310;SDS011;11828;51.508;18.118;2023-06-22T01:42:51;149.98;;;94.72;;
23310;SDS011;11828;51.508;18.118;2023-06-22T01:45:18;149.38;;;96.15;;
23310;SDS011;11828;51.508;18.118;2023-06-22T01:47:45;162.55;;;97.38;;
23310;SDS011;11828;51.508;18.118;2023-06-22T01:50:11;164.13;;;96.57;;
23310;SDS011;11828;51.508;18.118;2023-06-22T01:52:38;168.18;;;99.07;;
23310;SDS011;11828;51.508;18.118;2023-06-22T01:55:04;155.48;;;95.32;;
23310;SDS011;11828;51.508;18.118;2023-06-22T01:57:31;156.88;;;96.30;;
23310;SDS011;11828;51.508;18.118;2023-06-22T02:02:29;153.95;;;96.15;;
23310;SDS011;11828;51.508;18.118;2023-06-22T02:05:11;181.13;;;101.00;;
23310;SDS011;11828;51.508;18.118;2023-06-22T02:07:44;175.57;;;100.43;;
23310;SDS011;11828;51.508;18.118;2023-06-22T02:10:18;175.02;;;99.75;;
23310;SDS011;11828;51.508;18.118;2023-06-22T02:12:46;186.90;;;102.30;;
23310;SDS011;11828;51.508;18.118;2023-06-22T02:15:16;198.80;;;105.63;;
23310;SDS011;11828;51.508;18.118;2023-06-22T02:17:42;198.73;;;103.88;;
23310;SDS011;11828;51.508;18.118;2023-06-22T02:20:12;165.02;;;97.38;;
23310;SDS011;11828;51.508;18.118;2023-06-22T02:22:39;145.18;;;95.47;;
23310;SDS011;11828;51.508;18.118;2023-06-22T02:25:06;166.98;;;98.63;;
23310;SDS011;11828;51.508;18.118;2023-06-22T02:27:33;209.10;;;103.78;;
23310;SDS011;11828;51.508;18.118;2023-06-22T02:29:59;229.85;;;108.10;;
23310;SDS011;11828;51.508;18.118;2023-06-22T02:32:25;218.10;;;104.65;;
23310;SDS011;11828;51.508;18.118;2023-06-22T02:34:52;207.95;;;105.25;;
23310;SDS011;11828;51.508;18.118;2023-06-22T02:37:18;201.88;;;103.95;;
23310;SDS011;11828;51.508;18.118;2023-06-22T02:39:44;222.45;;;105.80;;
23310;SDS011;11828;51.508;18.118;2023-06-22T02:42:10;210.93;;;104.85;;
23310;SDS011;11828;51.508;18.118;2023-06-22T02:44:37;220.48;;;105.55;;
23310;SDS011;11828;51.508;18.118;2023-06-22T02:47:03;229.30;;;105.68;;
23310;SDS011;11828;51.508;18.118;2023-06-22T02:49:30;223.70;;;104.00;;
23310;SDS011;11828;51.508;18.118;2023-06-22T02:51:56;235.52;;;105.85;;
23310;SDS011;11828;51.508;18.118;2023-06-22T02:54:23;234.93;;;106.22;;
23310;SDS011;11828;51.508;18.118;2023-06-22T02:56:49;227.07;;;106.25;;
23310;SDS011;11828;51.508;18.118;2023-06-22T02:59:16;231.40;;;105.07;;
23310;SDS011;11828;51.508;18.118;2023-06-22T03:01:42;224.20;;;106.05;;
23310;SDS011;11828;51.508;18.118;2023-06-22T03:04:08;217.43;;;105.25;;
23310;SDS011;11828;51.508;18.118;2023-06-22T03:06:35;223.82;;;107.47;;
23310;SDS011;11828;51.508;18.118;2023-06-22T03:09:03;221.05;;;107.30;;
23310;SDS011;11828;51.508;18.118;2023-06-22T03:11:30;220.50;;;106.32;;
23310;SDS011;11828;51.508;18.118;2023-06-22T03:13:58;222.93;;;106.13;;
23310;SDS011;11828;51.508;18.118;2023-06-22T03:16:24;221.80;;;105.32;;
23310;SDS011;11828;51.508;18.118;2023-06-22T03:18:51;225.90;;;106.07;;
23310;SDS011;11828;51.508;18.118;2023-06-22T03:21:19;222.18;;;106.63;;
23310;SDS011;11828;51.508;18.118;2023-06-22T03:23:48;227.45;;;106.40;;
23310;SDS011;11828;51.508;18.118;2023-06-22T03:26:17;236.00;;;107.82;;
23310;SDS011;11828;51.508;18.118;2023-06-22T03:28:44;221.25;;;105.38;;
23310;SDS011;11828;51.508;18.118;2023-06-22T03:31:10;221.00;;;106.13;;
23310;SDS011;11828;51.508;18.118;2023-06-22T03:33:36;225.13;;;106.85;;
23310;SDS011;11828;51.508;18.118;2023-06-22T03:36:02;225.32;;;108.28;;
23310;SDS011;11828;51.508;18.118;2023-06-22T03:38:29;219.90;;;105.28;;
23310;SDS011;11828;51.508;18.118;2023-06-22T03:40:55;211.13;;;105.53;;
23310;SDS011;11828;51.508;18.118;2023-06-22T03:43:21;219.10;;;106.05;;
23310;SDS011;11828;51.508;18.118;2023-06-22T03:45:48;227.48;;;107.72;;
23310;SDS011;11828;51.508;18.118;2023-06-22T03:48:14;220.80;;;107.40;;
23310;SDS011;11828;51.508;18.118;2023-06-22T03:50:40;228.38;;;108.38;;
23310;SDS011;11828;51.508;18.118;2023-06-22T03:53:06;249.85;;;109.72;;
23310;SDS011;11828;51.508;18.118;2023-06-22T03:55:33;253.70;;;110.57;;
23310;SDS011;11828;51.508;18.118;2023-06-22T03:58:01;251.93;;;112.15;;
23310;SDS011;11828;51.508;18.118;2023-06-22T04:00:31;240.20;;;110.53;;
23310;SDS011;11828;51.508;18.118;2023-06-22T04:02:58;252.88;;;110.35;;
23310;SDS011;11828;51.508;18.118;2023-06-22T04:05:24;262.48;;;110.78;;
23310;SDS011;11828;51.508;18.118;2023-06-22T04:07:50;271.40;;;110.40;;
23310;SDS011;11828;51.508;18.118;2023-06-22T04:10:16;290.52;;;108.50;;
23310;SDS011;11828;51.508;18.118;2023-06-22T04:12:42;291.15;;;108.40;;
23310;SDS011;11828;51.508;18.118;2023-06-22T04:15:08;296.20;;;108.47;;
23310;SDS011;11828;51.508;18.118;2023-06-22T04:17:35;256.75;;;109.80;;
23310;SDS011;11828;51.508;18.118;2023-06-22T04:20:01;225.63;;;111.13;;
23310;SDS011;11828;51.508;18.118;2023-06-22T04:22:29;179.98;;;105.03;;
23310;SDS011;11828;51.508;18.118;2023-06-22T04:24:54;155.70;;;99.90;;
23310;SDS011;11828;51.508;18.118;2023-06-22T04:27:21;146.40;;;98.40;;
23310;SDS011;11828;51.508;18.118;2023-06-22T04:29:48;129.15;;;97.88;;
23310;SDS011;11828;51.508;18.118;2023-06-22T04:32:15;112.75;;;91.30;;
23310;SDS011;11828;51.508;18.118;2023-06-22T04:34:41;114.78;;;92.78;;
23310;SDS011;11828;51.508;18.118;2023-06-22T04:37:08;104.25;;;89.32;;
23310;SDS011;11828;51.508;18.118;2023-06-22T04:39:34;96.15;;;82.72;;
23310;SDS011;11828;51.508;18.118;2023-06-22T04:42:01;86.85;;;77.32;;
23310;SDS011;11828;51.508;18.118;2023-06-22T04:44:27;83.45;;;74.72;;
23310;SDS011;11828;51.508;18.118;2023-06-22T04:46:58;80.43;;;71.97;;
23310;SDS011;11828;51.508;18.118;2023-06-22T04:49:28;74.78;;;66.80;;
23310;SDS011;11828;51.508;18.118;2023-06-22T04:51:59;74.30;;;66.40;;
23310;SDS011;11828;51.508;18.118;2023-06-22T04:54:30;75.65;;;67.68;;
23310;SDS011;11828;51.508;18.118;2023-06-22T04:57:01;66.07;;;58.95;;
23310;SDS011;11828;51.508;18.118;2023-06-22T04:59:30;60.38;;;54.40;;
23310;SDS011;11828;51.508;18.118;2023-06-22T05:01:57;54.05;;;48.65;;
23310;SDS011;11828;51.508;18.118;2023-06-22T05:04:25;47.47;;;42.03;;
23310;SDS011;11828;51.508;18.118;2023-06-22T05:06:54;39.97;;;35.53;;
23310;SDS011;11828;51.508;18.118;2023-06-22T05:09:20;40.20;;;31.13;;
23310;SDS011;11828;51.508;18.118;2023-06-22T05:11:47;39.03;;;30.60;;
23310;SDS011;11828;51.508;18.118;2023-06-22T05:14:13;42.90;;;32.42;;
23310;SDS011;11828;51.508;18.118;2023-06-22T05:16:43;47.45;;;27.65;;
23310;SDS011;11828;51.508;18.118;2023-06-22T05:19:10;36.67;;;25.55;;
23310;SDS011;11828;51.508;18.118;2023-06-22T05:21:36;33.90;;;22.55;;
23310;SDS011;11828;51.508;18.118;2023-06-22T05:24:03;29.15;;;20.55;;
23310;SDS011;11828;51.508;18.118;2023-06-22T05:26:30;50.28;;;21.88;;
23310;SDS011;11828;51.508;18.118;2023-06-22T05:28:59;39.92;;;18.45;;
23310;SDS011;11828;51.508;18.118;2023-06-22T05:31:26;32.95;;;17.95;;
23310;SDS011;11828;51.508;18.118;2023-06-22T05:33:54;34.85;;;15.75;;
23310;SDS011;11828;51.508;18.118;2023-06-22T05:36:21;38.35;;;17.15;;
23310;SDS011;11828;51.508;18.118;2023-06-22T05:38:56;29.08;;;15.27;;
23310;SDS011;11828;51.508;18.118;2023-06-22T05:41:23;27.80;;;13.23;;
23310;SDS011;11828;51.508;18.118;2023-06-22T05:43:49;24.75;;;10.85;;
23310;SDS011;11828;51.508;18.118;2023-06-22T05:46:15;21.80;;;9.82;;
23310;SDS011;11828;51.508;18.118;2023-06-22T05:48:42;23.95;;;10.60;;
23310;SDS011;11828;51.508;18.118;2023-06-22T05:51:08;18.67;;;9.60;;
23310;SDS011;11828;51.508;18.118;2023-06-22T05:53:34;19.85;;;9.82;;
23310;SDS011;11828;51.508;18.118;2023-06-22T05:56:00;33.20;;;11.32;;
23310;SDS011;11828;51.508;18.118;2023-06-22T05:58:27;22.25;;;10.52;;
23310;SDS011;11828;51.508;18.118;2023-06-22T06:00:53;25.27;;;10.27;;
23310;SDS011;11828;51.508;18.118;2023-06-22T06:03:19;22.52;;;9.57;;
23310;SDS011;11828;51.508;18.118;2023-06-22T06:05:46;15.60;;;9.25;;
23310;SDS011;11828;51.508;18.118;2023-06-22T06:08:12;21.92;;;9.30;;
23310;SDS011;11828;51.508;18.118;2023-06-22T06:10:38;18.83;;;8.63;;
23310;SDS011;11828;51.508;18.118;2023-06-22T06:13:04;21.23;;;8.38;;
23310;SDS011;11828;51.508;18.118;2023-06-22T06:15:31;23.45;;;8.57;;
23310;SDS011;11828;51.508;18.118;2023-06-22T06:17:57;20.85;;;8.57;;
23310;SDS011;11828;51.508;18.118;2023-06-22T06:20:25;21.15;;;9.05;;
23310;SDS011;11828;51.508;18.118;2023-06-22T06:22:53;17.67;;;7.82;;
23310;SDS011;11828;51.508;18.118;2023-06-22T06:25:22;20.88;;;7.80;;
23310;SDS011;11828;51.508;18.118;2023-06-22T06:27:50;16.48;;;7.40;;
23310;SDS011;11828;51.508;18.118;2023-06-22T06:30:18;18.52;;;8.02;;
23310;SDS011;11828;51.508;18.118;2023-06-22T06:32:45;14.20;;;7.47;;
23310;SDS011;11828;51.508;18.118;2023-06-22T06:35:13;21.98;;;7.97;;
23310;SDS011;11828;51.508;18.118;2023-06-22T06:37:42;19.77;;;7.75;;
23310;SDS011;11828;51.508;18.118;2023-06-22T06:40:11;25.00;;;7.30;;
23310;SDS011;11828;51.508;18.118;2023-06-22T06:42:43;17.50;;;6.55;;
23310;SDS011;11828;51.508;18.118;2023-06-22T06:45:12;17.20;;;7.40;;
23310;SDS011;11828;51.508;18.118;2023-06-22T06:47:42;17.33;;;6.72;;
23310;SDS011;11828;51.508;18.118;2023-06-22T06:50:09;12.93;;;6.60;;
23310;SDS011;11828;51.508;18.118;2023-06-22T06:52:36;14.43;;;7.10;;
23310;SDS011;11828;51.508;18.118;2023-06-22T06:55:03;18.75;;;7.47;;
23310;SDS011;11828;51.508;18.118;2023-06-22T06:57:33;13.75;;;6.57;;
23310;SDS011;11828;51.508;18.118;2023-06-22T07:00:00;19.15;;;7.45;;
23310;SDS011;11828;51.508;18.118;2023-06-22T07:02:26;22.77;;;7.60;;
23310;SDS011;11828;51.508;18.118;2023-06-22T07:04:55;20.17;;;8.07;;
23310;SDS011;11828;51.508;18.118;2023-06-22T07:07:21;17.48;;;7.03;;
23310;SDS011;11828;51.508;18.118;2023-06-22T07:09:47;12.77;;;6.72;;
23310;SDS011;11828;51.508;18.118;2023-06-22T07:12:13;17.23;;;6.90;;
23310;SDS011;11828;51.508;18.118;2023-06-22T07:14:39;16.35;;;7.07;;
23310;SDS011;11828;51.508;18.118;2023-06-22T07:17:05;17.58;;;6.80;;
23310;SDS011;11828;51.508;18.118;2023-06-22T07:19:32;20.25;;;6.93;;
23310;SDS011;11828;51.508;18.118;2023-06-22T07:21:59;11.43;;;6.10;;
23310;SDS011;11828;51.508;18.118;2023-06-22T07:24:25;12.05;;;6.47;;
23310;SDS011;11828;51.508;18.118;2023-06-22T07:26:51;11.68;;;6.65;;
23310;SDS011;11828;51.508;18.118;2023-06-22T07:29:17;12.80;;;6.47;;
23310;SDS011;11828;51.508;18.118;2023-06-22T07:31:45;11.70;;;6.93;;
23310;SDS011;11828;51.508;18.118;2023-06-22T07:34:11;14.15;;;6.38;;
23310;SDS011;11828;51.508;18.118;2023-06-22T07:36:38;10.60;;;5.80;;
23310;SDS011;11828;51.508;18.118;2023-06-22T07:39:04;10.73;;;6.05;;
23310;SDS011;11828;51.508;18.118;2023-06-22T07:41:31;10.75;;;6.07;;
23310;SDS011;11828;51.508;18.118;2023-06-22T07:43:57;11.32;;;6.30;;
23310;SDS011;11828;51.508;18.118;2023-06-22T07:46:23;10.50;;;5.88;;
23310;SDS011;11828;51.508;18.118;2023-06-22T07:48:50;8.43;;;6.13;;
23310;SDS011;11828;51.508;18.118;2023-06-22T07:51:17;10.07;;;5.72;;
23310;SDS011;11828;51.508;18.118;2023-06-22T07:53:43;9.50;;;6.07;;
23310;SDS011;11828;51.508;18.118;2023-06-22T07:56:10;11.25;;;5.47;;
23310;SDS011;11828;51.508;18.118;2023-06-22T07:58:36;10.55;;;5.53;;
23310;SDS011;11828;51.508;18.118;2023-06-22T08:01:03;10.90;;;5.93;;
23310;SDS011;11828;51.508;18.118;2023-06-22T08:03:29;9.43;;;5.97;;
23310;SDS011;11828;51.508;18.118;2023-06-22T08:05:55;19.23;;;6.75;;
23310;SDS011;11828;51.508;18.118;2023-06-22T08:08:22;17.50;;;6.88;;
23310;SDS011;11828;51.508;18.118;2023-06-22T08:10:48;10.20;;;6.93;;
23310;SDS011;11828;51.508;18.118;2023-06-22T08:13:14;10.45;;;6.85;;
23310;SDS011;11828;51.508;18.118;2023-06-22T08:15:41;11.30;;;6.85;;
23310;SDS011;11828;51.508;18.118;2023-06-22T08:18:07;13.40;;;7.60;;
23310;SDS011;11828;51.508;18.118;2023-06-22T08:20:33;15.05;;;7.13;;
23310;SDS011;11828;51.508;18.118;2023-06-22T08:22:59;10.27;;;6.50;;
23310;SDS011;11828;51.508;18.118;2023-06-22T08:25:32;10.45;;;6.88;;
23310;SDS011;11828;51.508;18.118;2023-06-22T08:27:59;8.10;;;6.13;;
23310;SDS011;11828;51.508;18.118;2023-06-22T08:30:27;9.75;;;6.32;;
23310;SDS011;11828;51.508;18.118;2023-06-22T08:32:53;7.70;;;5.10;;
23310;SDS011;11828;51.508;18.118;2023-06-22T08:35:23;7.95;;;5.20;;
23310;SDS011;11828;51.508;18.118;2023-06-22T08:37:50;7.85;;;4.68;;
23310;SDS011;11828;51.508;18.118;2023-06-22T08:40:20;8.65;;;4.80;;
23310;SDS011;11828;51.508;18.118;2023-06-22T08:42:47;9.43;;;4.80;;
23310;SDS011;11828;51.508;18.118;2023-06-22T08:45:14;11.98;;;5.15;;
23310;SDS011;11828;51.508;18.118;2023-06-22T08:47:41;10.82;;;4.70;;
23310;SDS011;11828;51.508;18.118;2023-06-22T08:50:08;22.60;;;6.25;;
23310;SDS011;11828;51.508;18.118;2023-06-22T08:52:36;32.63;;;7.55;;
23310;SDS011;11828;51.508;18.118;2023-06-22T08:55:03;12.10;;;4.90;;
23310;SDS011;11828;51.508;18.118;2023-06-22T08:57:31;9.93;;;4.93;;
23310;SDS011;11828;51.508;18.118;2023-06-22T08:59:58;8.48;;;4.47;;
23310;SDS011;11828;51.508;18.118;2023-06-22T09:02:25;9.07;;;5.20;;
23310;SDS011;11828;51.508;18.118;2023-06-22T09:04:58;6.90;;;5.03;;
23310;SDS011;11828;51.508;18.118;2023-06-22T09:07:24;8.65;;;5.72;;
23310;SDS011;11828;51.508;18.118;2023-06-22T09:09:51;10.75;;;5.45;;
23310;SDS011;11828;51.508;18.118;2023-06-22T09:12:17;7.03;;;4.80;;
23310;SDS011;11828;51.508;18.118;2023-06-22T09:14:48;6.78;;;3.70;;
23310;SDS011;11828;51.508;18.118;2023-06-22T09:17:14;8.57;;;4.00;;
23310;SDS011;11828;51.508;18.118;2023-06-22T09:19:40;7.07;;;3.80;;
23310;SDS011;11828;51.508;18.118;2023-06-22T09:22:06;8.73;;;4.05;;
23310;SDS011;11828;51.508;18.118;2023-06-22T09:24:33;5.13;;;3.80;;
23310;SDS011;11828;51.508;18.118;2023-06-22T09:26:59;6.72;;;4.78;;
23310;SDS011;11828;51.508;18.118;2023-06-22T09:29:26;9.23;;;4.88;;
23310;SDS011;11828;51.508;18.118;2023-06-22T09:31:52;5.97;;;4.22;;
23310;SDS011;11828;51.508;18.118;2023-06-22T09:34:19;7.32;;;4.32;;
23310;SDS011;11828;51.508;18.118;2023-06-22T09:36:48;5.57;;;4.45;;
23310;SDS011;11828;51.508;18.118;2023-06-22T09:39:14;8.07;;;4.22;;
23310;SDS011;11828;51.508;18.118;2023-06-22T09:41:40;63.60;;;11.70;;
23310;SDS011;11828;51.508;18.118;2023-06-22T09:44:07;19.60;;;6.30;;
23310;SDS011;11828;51.508;18.118;2023-06-22T09:46:33;8.75;;;4.25;;
23310;SDS011;11828;51.508;18.118;2023-06-22T09:48:59;12.80;;;4.60;;
23310;SDS011;11828;51.508;18.118;2023-06-22T09:51:25;6.97;;;4.07;;
23310;SDS011;11828;51.508;18.118;2023-06-22T09:53:51;6.88;;;4.30;;
23310;SDS011;11828;51.508;18.118;2023-06-22T09:56:19;5.07;;;3.65;;
23310;SDS011;11828;51.508;18.118;2023-06-22T09:58:45;6.13;;;3.55;;
23310;SDS011;11828;51.508;18.118;2023-06-22T10:01:12;4.47;;;3.50;;
23310;SDS011;11828;51.508;18.118;2023-06-22T10:03:42;12.10;;;4.40;;
23310;SDS011;11828;51.508;18.118;2023-06-22T10:06:08;25.13;;;5.22;;
23310;SDS011;11828;51.508;18.118;2023-06-22T10:08:34;5.50;;;3.55;;
23310;SDS011;11828;51.508;18.118;2023-06-22T10:11:01;7.30;;;4.15;;
23310;SDS011;11828;51.508;18.118;2023-06-22T10:13:29;6.55;;;3.55;;
23310;SDS011;11828;51.508;18.118;2023-06-22T10:15:55;6.40;;;3.45;;
23310;SDS011;11828;51.508;18.118;2023-06-22T10:18:21;3.80;;;3.08;;
23310;SDS011;11828;51.508;18.118;2023-06-22T10:20:48;3.53;;;2.63;;
23310;SDS011;11828;51.508;18.118;2023-06-22T10:23:17;10.13;;;3.08;;
23310;SDS011;11828;51.508;18.118;2023-06-22T10:25:44;8.65;;;2.92;;
23310;SDS011;11828;51.508;18.118;2023-06-22T10:28:11;5.30;;;2.25;;
23310;SDS011;11828;51.508;18.118;2023-06-22T10:30:38;14.73;;;2.70;;
23310;SDS011;11828;51.508;18.118;2023-06-22T10:33:07;5.18;;;2.42;;
23310;SDS011;11828;51.508;18.118;2023-06-22T10:35:35;11.10;;;2.90;;
23310;SDS011;11828;51.508;18.118;2023-06-22T10:38:03;4.90;;;2.30;;
23310;SDS011;11828;51.508;18.118;2023-06-22T10:40:30;6.97;;;2.33;;
23310;SDS011;11828;51.508;18.118;2023-06-22T10:42:56;5.35;;;2.30;;
23310;SDS011;11828;51.508;18.118;2023-06-22T10:45:22;5.68;;;2.60;;
23310;SDS011;11828;51.508;18.118;2023-06-22T10:47:49;13.15;;;2.78;;
23310;SDS011;11828;51.508;18.118;2023-06-22T10:50:15;8.57;;;2.50;;
23310;SDS011;11828;51.508;18.118;2023-06-22T10:52:42;7.28;;;2.22;;
23310;SDS011;11828;51.508;18.118;2023-06-22T10:55:08;4.55;;;2.00;;
23310;SDS011;11828;51.508;18.118;2023-06-22T10:57:35;5.03;;;2.08;;
23310;SDS011;11828;51.508;18.118;2023-06-22T11:00:04;6.45;;;2.20;;
23310;SDS011;11828;51.508;18.118;2023-06-22T11:02:32;4.35;;;2.03;;
23310;SDS011;11828;51.508;18.118;2023-06-22T11:04:58;6.68;;;2.08;;
23310;SDS011;11828;51.508;18.118;2023-06-22T11:07:26;5.30;;;2.17;;
23310;SDS011;11828;51.508;18.118;2023-06-22T11:09:55;5.30;;;2.40;;
23310;SDS011;11828;51.508;18.118;2023-06-22T11:12:21;5.38;;;2.20;;
23310;SDS011;11828;51.508;18.118;2023-06-22T11:14:47;13.35;;;3.15;;
23310;SDS011;11828;51.508;18.118;2023-06-22T11:17:16;8.55;;;2.88;;
23310;SDS011;11828;51.508;18.118;2023-06-22T11:19:41;8.43;;;2.75;;
23310;SDS011;11828;51.508;18.118;2023-06-22T11:22:09;10.65;;;2.80;;
23310;SDS011;11828;51.508;18.118;2023-06-22T11:24:35;9.05;;;2.65;;
23310;SDS011;11828;51.508;18.118;2023-06-22T11:27:01;6.50;;;2.60;;
23310;SDS011;11828;51.508;18.118;2023-06-22T11:29:27;9.98;;;3.20;;
23310;SDS011;11828;51.508;18.118;2023-06-22T11:31:53;9.32;;;2.95;;
23310;SDS011;11828;51.508;18.118;2023-06-22T11:34:19;22.45;;;4.40;;
23310;SDS011;11828;51.508;18.118;2023-06-22T11:36:46;14.88;;;2.50;;
23310;SDS011;11828;51.508;18.118;2023-06-22T11:39:13;7.10;;;2.40;;
23310;SDS011;11828;51.508;18.118;2023-06-22T11:41:40;8.25;;;2.80;;
23310;SDS011;11828;51.508;18.118;2023-06-22T11:44:07;8.00;;;2.67;;
23310;SDS011;11828;51.508;18.118;2023-06-22T11:46:33;18.55;;;3.67;;
23310;SDS011;11828;51.508;18.118;2023-06-22T11:49:00;6.47;;;2.50;;
23310;SDS011;11828;51.508;18.118;2023-06-22T11:51:28;12.02;;;2.95;;
23310;SDS011;11828;51.508;18.118;2023-06-22T11:53:56;9.50;;;2.70;;
23310;SDS011;11828;51.508;18.118;2023-06-22T11:56:22;12.75;;;4.00;;
23310;SDS011;11828;51.508;18.118;2023-06-22T11:58:48;10.27;;;3.33;;
23310;SDS011;11828;51.508;18.118;2023-06-22T12:01:15;7.72;;;2.40;;
23310;SDS011;11828;51.508;18.118;2023-06-22T12:03:41;9.18;;;2.90;;
23310;SDS011;11828;51.508;18.118;2023-06-22T12:06:09;11.60;;;3.20;;
23310;SDS011;11828;51.508;18.118;2023-06-22T12:08:35;8.82;;;2.90;;
23310;SDS011;11828;51.508;18.118;2023-06-22T12:11:01;103.22;;;15.93;;
23310;SDS011;11828;51.508;18.118;2023-06-22T12:13:27;34.22;;;7.22;;
23310;SDS011;11828;51.508;18.118;2023-06-22T12:15:53;8.52;;;2.83;;
23310;SDS011;11828;51.508;18.118;2023-06-22T12:18:19;7.82;;;2.80;;
23310;SDS011;11828;51.508;18.118;2023-06-22T12:20:48;8.50;;;2.85;;
23310;SDS011;11828;51.508;18.118;2023-06-22T12:23:14;10.43;;;3.22;;
23310;SDS011;11828;51.508;18.118;2023-06-22T12:25:40;11.25;;;2.72;;
23310;SDS011;11828;51.508;18.118;2023-06-22T12:28:07;7.05;;;2.42;;
23310;SDS011;11828;51.508;18.118;2023-06-22T12:30:33;8.70;;;2.72;;
23310;SDS011;11828;51.508;18.118;2023-06-22T12:33:00;9.50;;;2.55;;
23310;SDS011;11828;51.508;18.118;2023-06-22T12:35:26;8.65;;;2.88;;
23310;SDS011;11828;51.508;18.118;2023-06-22T12:37:52;14.75;;;3.15;;
23310;SDS011;11828;51.508;18.118;2023-06-22T12:40:19;14.55;;;4.32;;
23310;SDS011;11828;51.508;18.118;2023-06-22T12:42:45;21.20;;;4.70;;
23310;SDS011;11828;51.508;18.118;2023-06-22T12:45:11;12.57;;;3.53;;
23310;SDS011;11828;51.508;18.118;2023-06-22T12:47:37;18.23;;;3.88;;
23310;SDS011;11828;51.508;18.118;2023-06-22T12:50:04;15.40;;;3.63;;
23310;SDS011;11828;51.508;18.118;2023-06-22T12:52:30;14.73;;;3.65;;
23310;SDS011;11828;51.508;18.118;2023-06-22T12:54:57;13.65;;;3.53;;
23310;SDS011;11828;51.508;18.118;2023-06-22T12:57:23;8.10;;;3.00;;
23310;SDS011;11828;51.508;18.118;2023-06-22T12:59:51;7.95;;;3.08;;
23310;SDS011;11828;51.508;18.118;2023-06-22T13:02:17;14.30;;;3.50;;
23310;SDS011;11828;51.508;18.118;2023-06-22T13:04:43;8.57;;;3.28;;
23310;SDS011;11828;51.508;18.118;2023-06-22T13:07:09;13.50;;;3.30;;
23310;SDS011;11828;51.508;18.118;2023-06-22T13:09:36;10.75;;;3.17;;
23310;SDS011;11828;51.508;18.118;2023-06-22T13:12:02;12.95;;;3.40;;
23310;SDS011;11828;51.508;18.118;2023-06-22T13:14:28;9.50;;;2.97;;
23310;SDS011;11828;51.508;18.118;2023-06-22T13:16:54;10.32;;;2.95;;
23310;SDS011;11828;51.508;18.118;2023-06-22T13:19:21;8.38;;;3.05;;
23310;SDS011;11828;51.508;18.118;2023-06-22T13:21:47;6.35;;;2.75;;
23310;SDS011;11828;51.508;18.118;2023-06-22T13:24:13;12.07;;;3.55;;
23310;SDS011;11828;51.508;18.118;2023-06-22T13:26:39;10.88;;;3.08;;
23310;SDS011;11828;51.508;18.118;2023-06-22T13:29:06;7.88;;;2.83;;
23310;SDS011;11828;51.508;18.118;2023-06-22T13:31:32;9.75;;;3.22;;
23310;SDS011;11828;51.508;18.118;2023-06-22T13:33:58;7.28;;;2.72;;
23310;SDS011;11828;51.508;18.118;2023-06-22T13:36:24;9.40;;;3.08;;
23310;SDS011;11828;51.508;18.118;2023-06-22T13:38:50;7.75;;;3.00;;
23310;SDS011;11828;51.508;18.118;2023-06-22T13:41:16;8.98;;;2.90;;
23310;SDS011;11828;51.508;18.118;2023-06-22T13:43:43;8.88;;;2.78;;
23310;SDS011;11828;51.508;18.118;2023-06-22T13:46:09;12.70;;;3.30;;
23310;SDS011;11828;51.508;18.118;2023-06-22T13:48:35;11.70;;;3.65;;
23310;SDS011;11828;51.508;18.118;2023-06-22T13:51:01;8.15;;;2.90;;
23310;SDS011;11828;51.508;18.118;2023-06-22T13:53:27;10.70;;;3.33;;
23310;SDS011;11828;51.508;18.118;2023-06-22T13:55:53;10.45;;;3.28;;
23310;SDS011;11828;51.508;18.118;2023-06-22T13:58:20;11.10;;;3.28;;
23310;SDS011;11828;51.508;18.118;2023-06-22T14:00:46;8.90;;;3.33;;
23310;SDS011;11828;51.508;18.118;2023-06-22T14:03:13;8.73;;;3.08;;
23310;SDS011;11828;51.508;18.118;2023-06-22T14:05:41;11.80;;;3.40;;
23310;SDS011;11828;51.508;18.118;2023-06-22T14:08:08;11.10;;;3.92;;
23310;SDS011;11828;51.508;18.118;2023-06-22T14:10:35;10.43;;;3.42;;
23310;SDS011;11828;51.508;18.118;2023-06-22T14:13:02;10.80;;;3.25;;
23310;SDS011;11828;51.508;18.118;2023-06-22T14:15:31;20.58;;;4.55;;
23310;SDS011;11828;51.508;18.118;2023-06-22T14:17:57;9.55;;;3.00;;
23310;SDS011;11828;51.508;18.118;2023-06-22T14:20:23;10.50;;;3.17;;
23310;SDS011;11828;51.508;18.118;2023-06-22T14:22:50;16.98;;;3.78;;
23310;SDS011;11828;51.508;18.118;2023-06-22T14:25:16;20.27;;;3.88;;
23310;SDS011;11828;51.508;18.118;2023-06-22T14:27:42;19.42;;;3.90;;
23310;SDS011;11828;51.508;18.118;2023-06-22T14:30:09;11.85;;;3.55;;
23310;SDS011;11828;51.508;18.118;2023-06-22T14:32:37;8.48;;;3.10;;